sensor_id;sensor_type;location;lat;lon;timestamp;pressure;altitude;pressure_sealevel;temperature;humidity
25130;BME280;13308;50.860;13.664;2024-01-30T06:40:42;98023.34;;;4.74;82.41
25130;BME280;13308;50.860;13.664;2024-01-30T06:43:07;98031.09;;;4.72;82.44
25130;BME280;13308;50.860;13.664;2024-01-30T06:45:33;98021.56;;;4.66;82.57
25130;BME280;13308;50.860;13.664;2024-01-30T06:47:59;98024.56;;;4.61;82.48
25130;BME280;13308;50.860;13.664;2024-01-30T06:50:25;98029.03;;;4.53;82.82
25130;BME280;13308;50.860;13.664;2024-01-30T06:52:50;98029.75;;;4.50;83.41
25130;BME280;13308;50.860;13.664;2024-01-30T06:55:16;98018.72;;;4.47;83.31
25130;BME280;13308;50.860;13.664;2024-01-30T06:57:41;98028.41;;;4.44;83.83
25130;BME280;13308;50.860;13.664;2024-01-30T07:00:07;98028.03;;;4.46;83.99
25130;BME280;13308;50.860;13.664;2024-01-30T07:02:32;98013.25;;;4.47;83.79
25130;BME280;13308;50.860;13.664;2024-01-30T07:04:58;98023.78;;;4.33;84.73
25130;BME280;13308;50.860;13.664;2024-01-30T07:07:23;98020.78;;;4.38;84.78
25130;BME280;13308;50.860;13.664;2024-01-30T07:09:48;98020.38;;;4.36;85.37
25130;BME280;13308;50.860;13.664;2024-01-30T07:12:17;98027.59;;;4.44;84.88
25130;BME280;13308;50.860;13.664;2024-01-30T07:14:42;98018.88;;;4.38;85.59
25130;BME280;13308;50.860;13.664;2024-01-30T07:17:08;98021.13;;;4.36;86.00
25130;BME280;13308;50.860;13.664;2024-01-30T07:19:33;98017.72;;;4.39;86.31
25130;BME280;13308;50.860;13.664;2024-01-30T07:21:59;98029.25;;;4.33;86.76
25130;BME280;13308;50.860;13.664;2024-01-30T07:24:24;98025.34;;;4.34;86.53
25130;BME280;13308;50.860;13.664;2024-01-30T07:26:50;98029.78;;;4.38;86.48
25130;BME280;13308;50.860;13.664;2024-01-30T07:29:15;98039.22;;;4.41;86.31
25130;BME280;13308;50.860;13.664;2024-01-30T07:31:40;98037.63;;;4.40;86.38
25130;BME280;13308;50.860;13.664;2024-01-30T07:34:06;98038.97;;;4.46;85.76
25130;BME280;13308;50.860;13.664;2024-01-30T07:36:31;98043.03;;;4.52;85.24
25130;BME280;13308;50.860;13.664;2024-01-30T07:38:56;98052.13;;;4.56;85.07
25130;BME280;13308;50.860;13.664;2024-01-30T07:41:22;98040.28;;;4.52;84.76
25130;BME280;13308;50.860;13.664;2024-01-30T07:43:48;98047.22;;;4.61;84.03
25130;BME280;13308;50.860;13.664;2024-01-30T07:46:13;98044.09;;;4.63;83.79
25130;BME280;13308;50.860;13.664;2024-01-30T07:48:38;98038.75;;;4.66;83.49
25130;BME280;13308;50.860;13.664;2024-01-30T07:51:04;98039.22;;;4.84;82.22
25130;BME280;13308;50.860;13.664;2024-01-30T07:53:29;98040.91;;;5.04;81.08
25130;BME280;13308;50.860;13.664;2024-01-30T07:55:54;98043.13;;;5.14;80.51
25130;BME280;13308;50.860;13.664;2024-01-30T07:58:20;98040.72;;;5.28;79.18
25130;BME280;13308;50.860;13.664;2024-01-30T08:00:45;98038.50;;;5.49;77.88
25130;BME280;13308;50.860;13.664;2024-01-30T08:03:10;98040.84;;;5.66;76.68
25130;BME280;13308;50.860;13.664;2024-01-30T08:05:36;98044.22;;;5.59;76.56
25130;BME280;13308;50.860;13.664;2024-01-30T08:08:01;98040.41;;;5.64;76.42
25130;BME280;13308;50.860;13.664;2024-01-30T08:10:26;98040.31;;;5.60;76.28
25130;BME280;13308;50.860;13.664;2024-01-30T08:12:52;98039.84;;;5.74;74.98
25130;BME280;13308;50.860;13.664;2024-01-30T08:15:17;98031.72;;;5.93;73.98
25130;BME280;13308;50.860;13.664;2024-01-30T08:17:43;98039.09;;;6.08;72.68
25130;BME280;13308;50.860;13.664;2024-01-30T08:20:10;98039.59;;;6.32;71.19
25130;BME280;13308;50.860;13.664;2024-01-30T08:22:38;98036.13;;;6.54;69.63
25130;BME280;13308;50.860;13.664;2024-01-30T08:25:05;98028.09;;;6.65;69.22
25130;BME280;13308;50.860;13.664;2024-01-30T08:27:30;98030.78;;;6.84;67.89
25130;BME280;13308;50.860;13.664;2024-01-30T08:29:55;98045.94;;;6.97;67.58
25130;BME280;13308;50.860;13.664;2024-01-30T08:32:21;98038.66;;;7.08;66.53
25130;BME280;13308;50.860;13.664;2024-01-30T08:34:46;98035.03;;;7.23;65.31
25130;BME280;13308;50.860;13.664;2024-01-30T08:37:11;98038.72;;;7.34;64.83
25130;BME280;13308;50.860;13.664;2024-01-30T08:39:37;98039.91;;;7.33;64.76
25130;BME280;13308;50.860;13.664;2024-01-30T08:42:02;98035.78;;;7.46;64.83
25130;BME280;13308;50.860;13.664;2024-01-30T08:44:28;98027.56;;;7.46;64.76
25130;BME280;13308;50.860;13.664;2024-01-30T08:46:53;98036.75;;;7.57;63.73
25130;BME280;13308;50.860;13.664;2024-01-30T08:49:19;98027.50;;;7.42;64.04
25130;BME280;13308;50.860;13.664;2024-01-30T08:51:45;98030.00;;;7.51;63.30
25130;BME280;13308;50.860;13.664;2024-01-30T08:54:10;98035.44;;;7.47;63.32
25130;BME280;13308;50.860;13.664;2024-01-30T08:56:36;98029.88;;;7.44;63.16
25130;BME280;13308;50.860;13.664;2024-01-30T08:59:01;98024.88;;;7.49;63.85
25130;BME280;13308;50.860;13.664;2024-01-30T09:01:26;98025.13;;;7.67;62.69
25130;BME280;13308;50.860;13.664;2024-01-30T09:03:53;98025.09;;;7.89;62.36
25130;BME280;13308;50.860;13.664;2024-01-30T09:06:18;98015.53;;;8.09;61.37
25130;BME280;13308;50.860;13.664;2024-01-30T09:08:43;98018.44;;;8.20;60.45
25130;BME280;13308;50.860;13.664;2024-01-30T09:11:10;98018.13;;;8.25;60.10
25130;BME280;13308;50.860;13.664;2024-01-30T09:13:36;98025.00;;;8.41;59.74
25130;BME280;13308;50.860;13.664;2024-01-30T09:16:01;98021.19;;;8.49;59.26
25130;BME280;13308;50.860;13.664;2024-01-30T09:18:26;98024.44;;;8.61;59.58
25130;BME280;13308;50.860;13.664;2024-01-30T09:20:52;98019.94;;;8.79;58.94
25130;BME280;13308;50.860;13.664;2024-01-30T09:23:17;98023.28;;;8.99;58.32
25130;BME280;13308;50.860;13.664;2024-01-30T09:25:44;98033.69;;;9.19;57.53
25130;BME280;13308;50.860;13.664;2024-01-30T09:28:10;98030.78;;;9.49;56.58
25130;BME280;13308;50.860;13.664;2024-01-30T09:30:35;98027.66;;;9.50;56.79
25130;BME280;13308;50.860;13.664;2024-01-30T09:33:00;98031.34;;;9.68;55.85
25130;BME280;13308;50.860;13.664;2024-01-30T09:35:26;98037.13;;;10.03;55.51
25130;BME280;13308;50.860;13.664;2024-01-30T09:37:51;98047.19;;;10.46;54.56
25130;BME280;13308;50.860;13.664;2024-01-30T09:40:17;98048.81;;;10.54;53.96
25130;BME280;13308;50.860;13.664;2024-01-30T09:42:46;98050.41;;;10.66;53.60
25130;BME280;13308;50.860;13.664;2024-01-30T09:45:13;98044.91;;;10.66;53.40
25130;BME280;13308;50.860;13.664;2024-01-30T09:47:43;98056.66;;;10.52;52.94
25130;BME280;13308;50.860;13.664;2024-01-30T09:50:10;98053.91;;;10.52;53.03
25130;BME280;13308;50.860;13.664;2024-01-30T09:52:35;98061.41;;;10.55;52.96
25130;BME280;13308;50.860;13.664;2024-01-30T09:55:01;98062.66;;;10.68;52.35
25130;BME280;13308;50.860;13.664;2024-01-30T09:57:27;98053.91;;;10.52;52.24
25130;BME280;13308;50.860;13.664;2024-01-30T09:59:52;98041.38;;;10.69;52.44
25130;BME280;13308;50.860;13.664;2024-01-30T10:02:22;98055.56;;;10.74;52.51
25130;BME280;13308;50.860;13.664;2024-01-30T10:04:49;98058.38;;;10.88;51.54
25130;BME280;13308;50.860;13.664;2024-01-30T10:07:15;98047.78;;;11.18;51.59
25130;BME280;13308;50.860;13.664;2024-01-30T10:09:40;98051.78;;;11.28;50.56
25130;BME280;13308;50.860;13.664;2024-01-30T10:12:06;98045.84;;;11.33;50.72
25130;BME280;13308;50.860;13.664;2024-01-30T10:14:32;98048.59;;;11.36;51.35
25130;BME280;13308;50.860;13.664;2024-01-30T10:16:58;98039.53;;;11.43;49.21
25130;BME280;13308;50.860;13.664;2024-01-30T10:19:23;98041.91;;;11.44;49.92
25130;BME280;13308;50.860;13.664;2024-01-30T10:21:49;98034.78;;;11.15;50.64
25130;BME280;13308;50.860;13.664;2024-01-30T10:24:14;98045.44;;;11.10;50.35
25130;BME280;13308;50.860;13.664;2024-01-30T10:26:39;98041.09;;;11.19;50.39
25130;BME280;13308;50.860;13.664;2024-01-30T10:29:05;98041.09;;;11.19;49.93
25130;BME280;13308;50.860;13.664;2024-01-30T10:31:30;98041.88;;;11.06;50.36
25130;BME280;13308;50.860;13.664;2024-01-30T10:33:56;98036.34;;;11.09;50.15
25130;BME280;13308;50.860;13.664;2024-01-30T10:36:27;98040.28;;;11.08;50.45
25130;BME280;13308;50.860;13.664;2024-01-30T10:38:55;98038.75;;;11.32;49.88
25130;BME280;13308;50.860;13.664;2024-01-30T10:41:26;98031.66;;;11.80;49.59
25130;BME280;13308;50.860;13.664;2024-01-30T10:44:01;98031.59;;;12.18;48.41
25130;BME280;13308;50.860;13.664;2024-01-30T10:46:30;98030.84;;;12.00;48.32
25130;BME280;13308;50.860;13.664;2024-01-30T10:49:00;98024.88;;;12.26;47.71
25130;BME280;13308;50.860;13.664;2024-01-30T10:51:28;98024.44;;;12.38;47.15
25130;BME280;13308;50.860;13.664;2024-01-30T10:53:55;98009.81;;;12.31;46.71
25130;BME280;13308;50.860;13.664;2024-01-30T10:56:22;98007.81;;;12.38;46.48
25130;BME280;13308;50.860;13.664;2024-01-30T10:58:52;98004.66;;;12.33;47.09
25130;BME280;13308;50.860;13.664;2024-01-30T11:01:22;98015.84;;;12.98;45.49
25130;BME280;13308;50.860;13.664;2024-01-30T11:03:51;98010.44;;;13.38;44.43
25130;BME280;13308;50.860;13.664;2024-01-30T11:06:17;98018.81;;;13.31;44.51
25130;BME280;13308;50.860;13.664;2024-01-30T11:08:45;98008.78;;;13.44;43.93
25130;BME280;13308;50.860;13.664;2024-01-30T11:11:11;98008.00;;;13.47;43.75
25130;BME280;13308;50.860;13.664;2024-01-30T11:13:36;98002.56;;;13.33;43.46
25130;BME280;13308;50.860;13.664;2024-01-30T11:16:03;98005.94;;;13.00;43.12
25130;BME280;13308;50.860;13.664;2024-01-30T11:18:32;98002.28;;;13.17;43.79
25130;BME280;13308;50.860;13.664;2024-01-30T11:21:01;97991.53;;;13.26;43.13
25130;BME280;13308;50.860;13.664;2024-01-30T11:23:31;97988.91;;;13.56;42.39
25130;BME280;13308;50.860;13.664;2024-01-30T11:25:58;97981.19;;;13.30;42.40
25130;BME280;13308;50.860;13.664;2024-01-30T11:28:23;97991.75;;;12.88;42.37
25130;BME280;13308;50.860;13.664;2024-01-30T11:30:48;97986.94;;;13.02;42.47
25130;BME280;13308;50.860;13.664;2024-01-30T11:33:27;97987.84;;;12.85;42.70
25130;BME280;13308;50.860;13.664;2024-01-30T11:35:53;97987.13;;;12.67;43.25
25130;BME280;13308;50.860;13.664;2024-01-30T11:38:18;97969.34;;;12.61;43.18
25130;BME280;13308;50.860;13.664;2024-01-30T11:40:43;97988.97;;;12.05;43.95
25130;BME280;13308;50.860;13.664;2024-01-30T11:43:09;97987.41;;;11.83;44.74
25130;BME280;13308;50.860;13.664;2024-01-30T11:45:35;97989.44;;;11.44;45.55
25130;BME280;13308;50.860;13.664;2024-01-30T11:48:01;97981.13;;;11.51;46.16
25130;BME280;13308;50.860;13.664;2024-01-30T11:50:29;97974.81;;;11.54;46.10
25130;BME280;13308;50.860;13.664;2024-01-30T11:52:55;97974.03;;;11.12;46.86
25130;BME280;13308;50.860;13.664;2024-01-30T11:55:21;97977.97;;;11.25;47.37
25130;BME280;13308;50.860;13.664;2024-01-30T11:57:46;97965.31;;;10.89;47.74
25130;BME280;13308;50.860;13.664;2024-01-30T12:00:16;97964.53;;;10.81;47.93
25130;BME280;13308;50.860;13.664;2024-01-30T12:02:42;97959.81;;;10.99;47.97
25130;BME280;13308;50.860;13.664;2024-01-30T12:05:08;97964.56;;;10.99;47.98
25130;BME280;13308;50.860;13.664;2024-01-30T12:07:34;97954.28;;;10.96;47.60
25130;BME280;13308;50.860;13.664;2024-01-30T12:13:05;97955.84;;;10.69;48.77
25130;BME280;13308;50.860;13.664;2024-01-30T12:15:31;97963.75;;;10.81;48.70
25130;BME280;13308;50.860;13.664;2024-01-30T12:18:06;97959.00;;;10.78;49.67
25130;BME280;13308;50.860;13.664;2024-01-30T12:20:32;97950.31;;;10.72;49.89
25130;BME280;13308;50.860;13.664;2024-01-30T12:22:58;97957.84;;;10.89;49.93
25130;BME280;13308;50.860;13.664;2024-01-30T12:25:23;97959.78;;;10.78;50.08
25130;BME280;13308;50.860;13.664;2024-01-30T12:27:50;97953.84;;;10.59;50.13
25130;BME280;13308;50.860;13.664;2024-01-30T12:30:16;97948.69;;;10.57;50.44
25130;BME280;13308;50.860;13.664;2024-01-30T12:32:43;97949.50;;;10.54;50.53
25130;BME280;13308;50.860;13.664;2024-01-30T12:35:17;97944.38;;;10.53;51.05
25130;BME280;13308;50.860;13.664;2024-01-30T12:37:43;97936.91;;;10.57;50.91
25130;BME280;13308;50.860;13.664;2024-01-30T12:40:10;97944.75;;;10.51;51.16
25130;BME280;13308;50.860;13.664;2024-01-30T12:42:36;97938.09;;;10.73;51.35
25130;BME280;13308;50.860;13.664;2024-01-30T12:45:05;97936.53;;;10.65;51.08
25130;BME280;13308;50.860;13.664;2024-01-30T12:47:31;97934.53;;;10.76;51.17
25130;BME280;13308;50.860;13.664;2024-01-30T12:49:57;97928.19;;;10.51;52.05
25130;BME280;13308;50.860;13.664;2024-01-30T12:52:22;97932.97;;;10.65;51.90
25130;BME280;13308;50.860;13.664;2024-01-30T12:54:48;97923.47;;;10.48;51.92
25130;BME280;13308;50.860;13.664;2024-01-30T12:57:14;97924.25;;;10.52;52.03
25130;BME280;13308;50.860;13.664;2024-01-30T12:59:40;97917.97;;;10.69;52.29
25130;BME280;13308;50.860;13.664;2024-01-30T13:02:05;97906.56;;;10.74;51.91
25130;BME280;13308;50.860;13.664;2024-01-30T13:04:31;97929.81;;;10.66;52.92
25130;BME280;13308;50.860;13.664;2024-01-30T13:06:57;97928.25;;;10.65;52.46
25130;BME280;13308;50.860;13.664;2024-01-30T13:09:23;97917.22;;;10.83;52.28
25130;BME280;13308;50.860;13.664;2024-01-30T13:11:49;97918.81;;;11.19;51.71
25130;BME280;13308;50.860;13.664;2024-01-30T13:14:14;97922.75;;;11.21;51.59
25130;BME280;13308;50.860;13.664;2024-01-30T13:16:39;97922.72;;;11.42;51.47
25130;BME280;13308;50.860;13.664;2024-01-30T13:19:05;97925.06;;;11.72;51.04
25130;BME280;13308;50.860;13.664;2024-01-30T13:21:31;97923.81;;;11.87;50.76
25130;BME280;13308;50.860;13.664;2024-01-30T13:23:56;97921.88;;;11.87;50.74
25130;BME280;13308;50.860;13.664;2024-01-30T13:26:21;97923.34;;;12.13;50.76
25130;BME280;13308;50.860;13.664;2024-01-30T13:28:47;97927.31;;;12.15;50.35
25130;BME280;13308;50.860;13.664;2024-01-30T13:31:14;97932.41;;;12.13;50.91
25130;BME280;13308;50.860;13.664;2024-01-30T13:33:40;97920.66;;;11.88;51.52
25130;BME280;13308;50.860;13.664;2024-01-30T13:36:07;97925.00;;;12.00;51.97
25130;BME280;13308;50.860;13.664;2024-01-30T13:38:33;97920.00;;;12.49;50.87
25130;BME280;13308;50.860;13.664;2024-01-30T13:40:59;97924.88;;;12.21;51.30
25130;BME280;13308;50.860;13.664;2024-01-30T13:43:24;97927.16;;;12.40;51.47
25130;BME280;13308;50.860;13.664;2024-01-30T13:45:49;97924.84;;;12.31;51.66
25130;BME280;13308;50.860;13.664;2024-01-30T13:48:15;97918.59;;;12.13;52.16
25130;BME280;13308;50.860;13.664;2024-01-30T13:50:40;97916.25;;;12.12;52.66
25130;BME280;13308;50.860;13.664;2024-01-30T13:53:05;97915.69;;;12.41;51.96
25130;BME280;13308;50.860;13.664;2024-01-30T13:55:31;97917.59;;;12.58;51.80
25130;BME280;13308;50.860;13.664;2024-01-30T13:57:56;97909.16;;;12.79;51.18
25130;BME280;13308;50.860;13.664;2024-01-30T14:00:22;97908.00;;;12.77;51.35
25130;BME280;13308;50.860;13.664;2024-01-30T14:02:48;97907.22;;;12.73;51.52
25130;BME280;13308;50.860;13.664;2024-01-30T14:05:13;97921.59;;;12.50;52.20
25130;BME280;13308;50.860;13.664;2024-01-30T14:07:40;97919.09;;;12.66;52.33
25130;BME280;13308;50.860;13.664;2024-01-30T14:10:06;97906.72;;;12.85;52.18
25130;BME280;13308;50.860;13.664;2024-01-30T14:12:31;97910.38;;;12.71;52.24
25130;BME280;13308;50.860;13.664;2024-01-30T14:14:57;97911.00;;;12.35;53.37
25130;BME280;13308;50.860;13.664;2024-01-30T14:17:22;97903.63;;;12.00;54.02
25130;BME280;13308;50.860;13.664;2024-01-30T14:19:47;97902.00;;;12.13;54.10
25130;BME280;13308;50.860;13.664;2024-01-30T14:22:13;97902.84;;;12.07;54.43
25130;BME280;13308;50.860;13.664;2024-01-30T14:24:38;97905.97;;;12.09;54.74
25130;BME280;13308;50.860;13.664;2024-01-30T14:27:03;97903.59;;;12.07;54.47
25130;BME280;13308;50.860;13.664;2024-01-30T14:29:29;97904.47;;;11.94;54.68
25130;BME280;13308;50.860;13.664;2024-01-30T14:31:54;97898.22;;;11.72;55.35
25130;BME280;13308;50.860;13.664;2024-01-30T14:34:20;97902.22;;;11.40;56.00
25130;BME280;13308;50.860;13.664;2024-01-30T14:36:45;97906.19;;;11.11;56.91
25130;BME280;13308;50.860;13.664;2024-01-30T14:39:11;97899.09;;;10.78;58.16
25130;BME280;13308;50.860;13.664;2024-01-30T14:41:36;97909.31;;;10.81;58.03
25130;BME280;13308;50.860;13.664;2024-01-30T14:44:02;97905.38;;;10.65;58.80
25130;BME280;13308;50.860;13.664;2024-01-30T14:46:28;97899.44;;;10.52;59.35
25130;BME280;13308;50.860;13.664;2024-01-30T14:48:53;97903.75;;;10.50;59.76
25130;BME280;13308;50.860;13.664;2024-01-30T14:51:19;97895.91;;;10.48;59.40
25130;BME280;13308;50.860;13.664;2024-01-30T14:53:44;97889.56;;;10.37;60.08
25130;BME280;13308;50.860;13.664;2024-01-30T14:56:10;97891.13;;;10.35;60.08
25130;BME280;13308;50.860;13.664;2024-01-30T14:58:36;97881.63;;;10.18;61.28
25130;BME280;13308;50.860;13.664;2024-01-30T15:01:02;97890.97;;;9.96;62.10
25130;BME280;13308;50.860;13.664;2024-01-30T15:03:27;97893.28;;;9.87;62.53
25130;BME280;13308;50.860;13.664;2024-01-30T15:05:55;97898.00;;;9.76;62.92
25130;BME280;13308;50.860;13.664;2024-01-30T15:08:21;97886.91;;;9.66;63.73
25130;BME280;13308;50.860;13.664;2024-01-30T15:10:47;97899.06;;;9.61;63.60
25130;BME280;13308;50.860;13.664;2024-01-30T15:13:12;97893.91;;;9.49;64.31
25130;BME280;13308;50.860;13.664;2024-01-30T15:15:37;97893.81;;;9.35;65.02
25130;BME280;13308;50.860;13.664;2024-01-30T15:18:03;97895.38;;;9.29;65.43
25130;BME280;13308;50.860;13.664;2024-01-30T15:20:29;97890.53;;;9.12;66.29
25130;BME280;13308;50.860;13.664;2024-01-30T15:22:56;97892.00;;;8.99;67.28
25130;BME280;13308;50.860;13.664;2024-01-30T15:25:21;97885.16;;;8.83;68.15
25130;BME280;13308;50.860;13.664;2024-01-30T15:27:47;97886.69;;;8.77;68.51
25130;BME280;13308;50.860;13.664;2024-01-30T15:30:12;97893.03;;;8.81;68.80
25130;BME280;13308;50.860;13.664;2024-01-30T15:32:37;97885.78;;;8.62;69.61
25130;BME280;13308;50.860;13.664;2024-01-30T15:35:03;97892.03;;;8.56;70.16
25130;BME280;13308;50.860;13.664;2024-01-30T15:37:29;97887.53;;;8.41;70.80
25130;BME280;13308;50.860;13.664;2024-01-30T15:39:55;97895.75;;;8.38;71.76
25130;BME280;13308;50.860;13.664;2024-01-30T15:42:20;97898.44;;;8.31;72.36
25130;BME280;13308;50.860;13.664;2024-01-30T15:44:45;97889.78;;;8.29;72.53
25130;BME280;13308;50.860;13.664;2024-01-30T15:47:11;97888.63;;;8.30;72.73
25130;BME280;13308;50.860;13.664;2024-01-30T15:49:36;97907.81;;;8.26;73.26
25130;BME280;13308;50.860;13.664;2024-01-30T15:52:01;97906.88;;;8.15;73.93
25130;BME280;13308;50.860;13.664;2024-01-30T15:54:27;97900.56;;;8.14;74.18
25130;BME280;13308;50.860;13.664;2024-01-30T15:56:52;97905.25;;;8.11;74.92
25130;BME280;13308;50.860;13.664;2024-01-30T15:59:17;97903.75;;;8.17;74.86
25130;BME280;13308;50.860;13.664;2024-01-30T16:01:43;97888.34;;;8.08;75.12
25130;BME280;13308;50.860;13.664;2024-01-30T16:04:13;97904.53;;;8.17;75.83
25130;BME280;13308;50.860;13.664;2024-01-30T16:06:39;97909.25;;;8.17;75.99
25130;BME280;13308;50.860;13.664;2024-01-30T16:09:04;97904.69;;;8.28;75.97
25130;BME280;13308;50.860;13.664;2024-01-30T16:11:30;97910.94;;;8.25;76.32
25130;BME280;13308;50.860;13.664;2024-01-30T16:13:57;97907.09;;;8.32;76.61
25130;BME280;13308;50.860;13.664;2024-01-30T16:16:22;97913.34;;;8.30;76.79
25130;BME280;13308;50.860;13.664;2024-01-30T16:18:47;97915.31;;;8.32;77.46
25130;BME280;13308;50.860;13.664;2024-01-30T16:21:13;97912.19;;;8.31;77.80
25130;BME280;13308;50.860;13.664;2024-01-30T16:23:39;97913.81;;;8.38;78.22
25130;BME280;13308;50.860;13.664;2024-01-30T16:26:04;97915.00;;;8.38;77.88
25130;BME280;13308;50.860;13.664;2024-01-30T16:28:29;97910.66;;;8.37;78.60
25130;BME280;13308;50.860;13.664;2024-01-30T16:30:55;97910.72;;;8.40;78.71
25130;BME280;13308;50.860;13.664;2024-01-30T16:33:22;97913.50;;;8.43;78.61
25130;BME280;13308;50.860;13.664;2024-01-30T16:35:48;97919.84;;;8.51;78.28
25130;BME280;13308;50.860;13.664;2024-01-30T16:38:13;97917.06;;;8.48;78.58
25130;BME280;13308;50.860;13.664;2024-01-30T16:40:38;97927.75;;;8.56;79.24
25130;BME280;13308;50.860;13.664;2024-01-30T16:43:04;97918.34;;;8.57;79.38
25130;BME280;13308;50.860;13.664;2024-01-30T16:45:29;97917.53;;;8.56;80.18
25130;BME280;13308;50.860;13.664;2024-01-30T16:47:55;97917.13;;;8.54;80.13
25130;BME280;13308;50.860;13.664;2024-01-30T16:50:20;97925.38;;;8.54;80.14
25130;BME280;13308;50.860;13.664;2024-01-30T16:52:45;97922.34;;;8.66;79.82
25130;BME280;13308;50.860;13.664;2024-01-30T16:55:11;97930.97;;;8.65;79.70
25130;BME280;13308;50.860;13.664;2024-01-30T16:57:36;97923.00;;;8.53;80.43
25130;BME280;13308;50.860;13.664;2024-01-30T17:00:01;97930.88;;;8.54;80.80
25130;BME280;13308;50.860;13.664;2024-01-30T17:02:27;97932.06;;;8.53;81.62
25130;BME280;13308;50.860;13.664;2024-01-30T17:04:52;97923.81;;;8.53;81.40
25130;BME280;13308;50.860;13.664;2024-01-30T17:07:18;97930.97;;;8.65;81.56
25130;BME280;13308;50.860;13.664;2024-01-30T17:09:43;97931.06;;;8.72;81.71
25130;BME280;13308;50.860;13.664;2024-01-30T17:12:08;97930.31;;;8.78;81.31
25130;BME280;13308;50.860;13.664;2024-01-30T17:14:34;97938.25;;;8.83;81.62
25130;BME280;13308;50.860;13.664;2024-01-30T17:17:04;97934.38;;;8.91;81.85
25130;BME280;13308;50.860;13.664;2024-01-30T17:19:29;97938.34;;;8.97;81.48
25130;BME280;13308;50.860;13.664;2024-01-30T17:21:55;97929.38;;;9.04;81.81
25130;BME280;13308;50.860;13.664;2024-01-30T17:24:20;97928.88;;;8.91;82.34
25130;BME280;13308;50.860;13.664;2024-01-30T17:26:45;97927.38;;;9.01;82.63
25130;BME280;13308;50.860;13.664;2024-01-30T17:29:11;97933.19;;;8.92;83.04
25130;BME280;13308;50.860;13.664;2024-01-30T17:31:37;97933.72;;;9.08;83.14
25130;BME280;13308;50.860;13.664;2024-01-30T17:34:02;97922.28;;;8.99;83.38
25130;BME280;13308;50.860;13.664;2024-01-30T17:36:27;97923.63;;;9.26;83.85
25130;BME280;13308;50.860;13.664;2024-01-30T17:38:53;97929.16;;;9.26;83.41
25130;BME280;13308;50.860;13.664;2024-01-30T17:41:18;97929.22;;;9.37;83.01
25130;BME280;13308;50.860;13.664;2024-01-30T17:43:43;97929.25;;;9.40;82.82
25130;BME280;13308;50.860;13.664;2024-01-30T17:46:09;97931.22;;;9.43;82.73
25130;BME280;13308;50.860;13.664;2024-01-30T17:48:34;97930.38;;;9.36;82.95
25130;BME280;13308;50.860;13.664;2024-01-30T17:51:00;97924.56;;;9.44;82.82
25130;BME280;13308;50.860;13.664;2024-01-30T17:53:26;97933.91;;;9.29;83.49
25130;BME280;13308;50.860;13.664;2024-01-30T17:55:51;97929.94;;;9.27;84.08
25130;BME280;13308;50.860;13.664;2024-01-30T17:58:17;97930.78;;;9.34;84.19
25130;BME280;13308;50.860;13.664;2024-01-30T18:00:42;97932.38;;;9.35;84.28
25130;BME280;13308;50.860;13.664;2024-01-30T18:03:07;97930.00;;;9.37;84.80
25130;BME280;13308;50.860;13.664;2024-01-30T18:05:33;97923.78;;;9.44;84.58
25130;BME280;13308;50.860;13.664;2024-01-30T18:07:58;97929.41;;;9.68;84.51
25130;BME280;13308;50.860;13.664;2024-01-30T18:10:24;97926.25;;;9.66;84.69
25130;BME280;13308;50.860;13.664;2024-01-30T18:12:49;97925.53;;;9.76;84.76
25130;BME280;13308;50.860;13.664;2024-01-30T18:15:16;97935.72;;;9.69;84.96
25130;BME280;13308;50.860;13.664;2024-01-30T18:17:41;97933.34;;;9.67;85.50
25130;BME280;13308;50.860;13.664;2024-01-30T18:20:08;97940.44;;;9.72;86.06
25130;BME280;13308;50.860;13.664;2024-01-30T18:22:33;97935.75;;;9.72;85.57
25130;BME280;13308;50.860;13.664;2024-01-30T18:24:58;97936.94;;;9.75;86.10
25130;BME280;13308;50.860;13.664;2024-01-30T18:27:24;97939.75;;;9.85;85.47
25130;BME280;13308;50.860;13.664;2024-01-30T18:29:49;97937.72;;;9.75;86.06
25130;BME280;13308;50.860;13.664;2024-01-30T18:32:15;97933.31;;;9.60;87.14
25130;BME280;13308;50.860;13.664;2024-01-30T18:34:40;97939.25;;;9.69;87.35
25130;BME280;13308;50.860;13.664;2024-01-30T18:37:05;97935.75;;;9.76;87.12
25130;BME280;13308;50.860;13.664;2024-01-30T18:39:33;97946.78;;;9.79;87.26
25130;BME280;13308;50.860;13.664;2024-01-30T18:41:58;97935.03;;;9.89;87.02
25130;BME280;13308;50.860;13.664;2024-01-30T18:44:23;97951.59;;;9.89;86.48
25130;BME280;13308;50.860;13.664;2024-01-30T18:46:49;97943.72;;;9.91;86.34
25130;BME280;13308;50.860;13.664;2024-01-30T18:49:15;97953.53;;;9.85;86.47
25130;BME280;13308;50.860;13.664;2024-01-30T18:51:40;97948.00;;;9.82;87.05
25130;BME280;13308;50.860;13.664;2024-01-30T18:57:48;97934.94;;;9.72;87.99
25130;BME280;13308;50.860;13.664;2024-01-30T19:00:13;97948.31;;;9.70;88.33
25130;BME280;13308;50.860;13.664;2024-01-30T19:02:39;97952.28;;;9.72;88.13
25130;BME280;13308;50.860;13.664;2024-01-30T19:05:04;97941.25;;;9.72;88.19
25130;BME280;13308;50.860;13.664;2024-01-30T19:07:30;97934.22;;;9.85;88.13
25130;BME280;13308;50.860;13.664;2024-01-30T19:09:55;97938.50;;;9.72;88.67
25130;BME280;13308;50.860;13.664;2024-01-30T19:12:21;97946.75;;;9.72;89.10
25130;BME280;13308;50.860;13.664;2024-01-30T19:14:47;97949.94;;;9.81;88.34
